Time;durP1;ratioP1;P1;durP2;ratioP2;P2;SDS_P1;SDS_P2;PMS_P1;PMS_P2;Temp;Humidity;BMP_temperature;BMP_pressure;BME280_temperature;BME280_humidity;BME280_pressure;Samples;Min_cycle;Max_cycle;Signal;HPM_P1;HPM_P2
2021/01/07 00:01:40;;;;;;;1.95;1.00;;;7.80;79.70;;;;;;5113553;28;20088;-39
2021/01/07 00:04:06;;;;;;;1.42;1.10;;;7.80;79.80;;;;;;5113469;28;20123;-39
2021/01/07 00:06:32;;;;;;;1.23;1.02;;;7.90;79.80;;;;;;5113540;28;20123;-39
2021/01/07 00:08:57;;;;;;;1.10;0.88;;;7.80;79.70;;;;;;5113853;28;20067;-39
2021/01/07 00:11:23;;;;;;;1.35;1.25;;;7.90;79.70;;;;;;5113693;28;20047;-39
2021/01/07 00:13:49;;;;;;;1.10;1.00;;;7.90;79.80;;;;;;5113237;28;20053;-39
2021/01/07 00:16:14;;;;;;;1.20;1.10;;;7.80;79.80;;;;;;5113743;28;20047;-39
2021/01/07 00:18:40;;;;;;;1.25;1.08;;;7.80;79.80;;;;;;5113278;28;20560;-39
2021/01/07 00:21:06;;;;;;;1.08;0.98;;;7.90;79.80;;;;;;5113032;28;20043;-40
2021/01/07 00:23:32;;;;;;;1.17;0.90;;;7.80;79.70;;;;;;5113012;28;20040;-39
2021/01/07 00:25:58;;;;;;;1.40;1.23;;;7.80;79.70;;;;;;5113414;28;20067;-38
2021/01/07 00:28:24;;;;;;;0.90;0.90;;;7.80;79.80;;;;;;5113136;28;20051;-38
2021/01/07 00:30:50;;;;;;;1.00;0.90;;;7.80;79.80;;;;;;5113128;28;20043;-39
2021/01/07 00:33:18;;;;;;;1.27;1.17;;;7.80;79.80;;;;;;5112438;28;20052;-39
2021/01/07 00:35:44;;;;;;;1.20;1.10;;;7.90;79.80;;;;;;5112587;28;20097;-39
2021/01/07 00:38:10;;;;;;;0.93;0.77;;;7.90;79.80;;;;;;5112962;28;20055;-40
2021/01/07 00:40:36;;;;;;;1.10;1.00;;;7.80;79.80;;;;;;5113136;28;20552;-40
2021/01/07 00:43:03;;;;;;;1.20;1.05;;;7.80;79.80;;;;;;5113281;28;20054;-40
2021/01/07 00:45:30;;;;;;;1.00;0.90;;;7.80;79.80;;;;;;5110282;28;20405;-40
2021/01/07 00:47:55;;;;;;;1.08;0.95;;;7.80;79.80;;;;;;5112783;28;20051;-40
2021/01/07 00:50:22;;;;;;;1.27;0.90;;;7.80;79.70;;;;;;5112864;28;20048;-39
2021/01/07 00:52:47;;;;;;;1.60;0.80;;;7.80;79.70;;;;;;5112716;28;20047;-40
2021/01/07 00:55:15;;;;;;;1.42;1.20;;;7.80;79.70;;;;;;5112854;28;20141;-40
2021/01/07 00:57:41;;;;;;;1.77;1.10;;;7.80;79.70;;;;;;5112930;28;20044;-40
2021/01/07 01:00:10;;;;;;;0.80;0.80;;;7.80;79.80;;;;;;5112496;28;20399;-40
2021/01/07 01:02:35;;;;;;;0.93;0.88;;;7.80;79.80;;;;;;5112344;28;20089;-39
2021/01/07 01:05:02;;;;;;;1.13;1.02;;;7.80;79.80;;;;;;5111988;28;20044;-40
2021/01/07 01:07:28;;;;;;;0.90;0.88;;;7.90;79.80;;;;;;5112772;28;20079;-39
2021/01/07 01:09:54;;;;;;;1.30;0.90;;;7.80;79.70;;;;;;5111893;28;20086;-40
2021/01/07 01:12:20;;;;;;;1.73;0.90;;;7.80;79.70;;;;;;5112715;28;20442;-40
2021/01/07 01:14:46;;;;;;;1.25;0.90;;;7.80;79.80;;;;;;5112920;28;20119;-38
2021/01/07 01:17:12;;;;;;;1.20;1.10;;;7.80;79.70;;;;;;5112194;28;20135;-39
2021/01/07 01:19:37;;;;;;;1.15;1.02;;;7.80;79.70;;;;;;5112355;28;20039;-40
2021/01/07 01:22:04;;;;;;;1.17;1.02;;;7.80;79.80;;;;;;5112704;28;20527;-40
2021/01/07 01:24:30;;;;;;;1.00;0.90;;;7.80;79.70;;;;;;5112675;28;20044;-40
2021/01/07 01:26:56;;;;;;;0.85;0.80;;;7.80;79.80;;;;;;5112412;28;20126;-39
2021/01/07 01:29:22;;;;;;;1.48;1.00;;;7.80;79.80;;;;;;5112523;28;20048;-40
2021/01/07 01:31:48;;;;;;;0.80;0.80;;;7.80;79.80;;;;;;5112032;28;20051;-40
2021/01/07 01:34:15;;;;;;;0.88;0.88;;;7.80;79.80;;;;;;5112348;28;20165;-39
2021/01/07 01:36:41;;;;;;;1.20;1.00;;;7.80;79.80;;;;;;5112300;28;20063;-39
2021/01/07 01:39:06;;;;;;;1.15;0.90;;;7.80;79.80;;;;;;5116507;28;20050;-40
2021/01/07 01:41:39;;;;;;;0.70;0.70;;;7.80;79.80;;;;;;5116383;28;20044;-39
2021/01/07 01:44:07;;;;;;;0.90;0.90;;;7.80;79.80;;;;;;5116423;28;20569;-40
2021/01/07 01:46:33;;;;;;;1.05;0.95;;;7.80;79.80;;;;;;5115525;28;20104;-39
2021/01/07 01:49:00;;;;;;;1.38;0.95;;;7.80;79.80;;;;;;5116141;28;20499;-40
2021/01/07 01:51:25;;;;;;;1.00;0.90;;;7.80;79.80;;;;;;5116089;28;20043;-40
2021/01/07 01:53:51;;;;;;;0.68;0.60;;;7.80;79.80;;;;;;5115899;28;20077;-40
2021/01/07 01:56:17;;;;;;;0.98;0.90;;;7.80;79.80;;;;;;5115723;28;20047;-40
2021/01/07 01:58:43;;;;;;;1.00;0.70;;;7.80;79.70;;;;;;5116277;28;20063;-40
2021/01/07 02:01:09;;;;;;;0.95;0.70;;;7.80;79.80;;;;;;5113694;28;20487;-40
2021/01/07 02:03:41;;;;;;;2.10;0.80;;;7.80;79.80;;;;;;5115489;28;20483;-40
2021/01/07 02:06:11;;;;;;;1.13;0.90;;;7.80;79.80;;;;;;5116100;28;20040;-40
2021/01/07 02:08:38;;;;;;;0.98;0.80;;;7.80;79.80;;;;;;5114279;28;20043;-40
2021/01/07 02:11:05;;;;;;;0.85;0.80;;;7.80;79.80;;;;;;5115845;28;20567;-40
2021/01/07 02:13:30;;;;;;;0.90;0.90;;;7.80;79.80;;;;;;5115474;28;20043;-40
2021/01/07 02:15:57;;;;;;;1.33;0.95;;;7.80;79.80;;;;;;5116192;28;20486;-39
2021/01/07 02:18:23;;;;;;;0.95;0.93;;;7.80;79.80;;;;;;5115509;28;20051;-40
2021/01/07 02:20:48;;;;;;;1.20;0.90;;;7.80;79.80;;;;;;5115858;28;20047;-40
2021/01/07 02:23:15;;;;;;;1.13;1.00;;;7.80;79.80;;;;;;5115432;28;20083;-40
2021/01/07 02:25:40;;;;;;;0.75;0.75;;;7.80;79.80;;;;;;5115664;28;20075;-40
2021/01/07 02:28:08;;;;;;;0.70;0.68;;;7.80;79.80;;;;;;5115491;28;20487;-40
2021/01/07 02:30:34;;;;;;;0.73;0.73;;;7.80;79.80;;;;;;5115857;28;20055;-40
2021/01/07 02:33:00;;;;;;;0.80;0.80;;;7.80;79.80;;;;;;5114929;28;20138;-40
2021/01/07 02:35:26;;;;;;;0.80;0.75;;;7.80;79.80;;;;;;5114817;28;20178;-39
2021/01/07 02:37:51;;;;;;;0.88;0.85;;;7.80;80.40;;;;;;5115344;28;20044;-40
2021/01/07 02:40:17;;;;;;;1.42;0.95;;;7.80;79.80;;;;;;5115515;28;20070;-39
2021/01/07 02:42:43;;;;;;;1.10;0.90;;;7.80;79.80;;;;;;5115061;28;20040;-39
2021/01/07 02:45:09;;;;;;;1.05;0.98;;;7.80;79.80;;;;;;5115577;28;20048;-38
2021/01/07 02:47:36;;;;;;;0.80;0.80;;;7.80;79.80;;;;;;5114952;28;20047;-40
2021/01/07 02:50:04;;;;;;;0.93;0.80;;;7.80;79.80;;;;;;5113673;28;20111;-39
2021/01/07 02:52:30;;;;;;;0.90;0.70;;;7.80;79.80;;;;;;5111651;28;20040;-39
2021/01/07 02:54:55;;;;;;;1.63;1.05;;;7.80;79.80;;;;;;5115198;28;20453;-39
2021/01/07 02:57:21;;;;;;;0.80;0.80;;;7.80;79.80;;;;;;5115130;28;20040;-39
2021/01/07 02:59:47;;;;;;;1.02;0.90;;;7.80;79.80;;;;;;5114743;28;20483;-39
2021/01/07 03:02:13;;;;;;;1.20;0.90;;;7.80;79.80;;;;;;5114492;28;20123;-39
2021/01/07 03:04:38;;;;;;;0.70;0.70;;;7.80;79.80;;;;;;5114378;28;20067;-39
2021/01/07 03:07:04;;;;;;;0.60;0.60;;;7.80;79.80;;;;;;5114490;28;20044;-39
2021/01/07 03:09:30;;;;;;;1.15;0.80;;;7.80;79.80;;;;;;5115070;28;20047;-39
2021/01/07 03:11:56;;;;;;;0.85;0.85;;;7.80;79.80;;;;;;5114920;28;20067;-39
2021/01/07 03:14:21;;;;;;;0.98;0.73;;;7.80;79.80;;;;;;5114685;28;20092;-39
2021/01/07 03:16:47;;;;;;;1.02;0.90;;;7.80;79.80;;;;;;5114719;28;20407;-40
2021/01/07 03:19:13;;;;;;;0.82;0.82;;;7.80;79.80;;;;;;5114412;28;20400;-39
2021/01/07 03:21:41;;;;;;;0.77;0.70;;;7.80;79.80;;;;;;5114306;28;20499;-39
2021/01/07 03:24:09;;;;;;;0.98;0.80;;;7.80;79.80;;;;;;5113836;28;20047;-39
2021/01/07 03:26:35;;;;;;;0.70;0.68;;;7.80;79.80;;;;;;5114944;28;20040;-39
2021/01/07 03:29:02;;;;;;;0.95;0.80;;;7.80;79.80;;;;;;5114641;28;20120;-39
2021/01/07 03:31:27;;;;;;;1.00;0.95;;;7.80;79.80;;;;;;5114452;28;20039;-39
2021/01/07 03:33:53;;;;;;;0.80;0.77;;;7.80;79.80;;;;;;5113845;28;20485;-40
2021/01/07 03:36:19;;;;;;;0.70;0.70;;;7.80;79.80;;;;;;5113947;28;20475;-40
2021/01/07 03:38:44;;;;;;;0.88;0.82;;;7.80;79.80;;;;;;5113939;28;20090;-41
2021/01/07 03:41:10;;;;;;;0.73;0.65;;;7.80;79.80;;;;;;5114434;28;20039;-39
2021/01/07 03:43:36;;;;;;;0.70;0.70;;;7.80;79.80;;;;;;5114135;28;20047;-40
2021/01/07 03:46:01;;;;;;;1.58;0.80;;;7.80;79.80;;;;;;5113870;28;20043;-40
2021/01/07 03:48:27;;;;;;;0.80;0.73;;;7.80;79.80;;;;;;5114010;28;20543;-38
2021/01/07 03:50:53;;;;;;;0.95;0.88;;;7.80;79.80;;;;;;5113757;28;20036;-38
2021/01/07 03:53:18;;;;;;;1.23;0.80;;;7.80;79.80;;;;;;5113704;28;20043;-37
2021/01/07 03:55:44;;;;;;;0.60;0.60;;;7.80;79.80;;;;;;5113486;28;20052;-38
2021/01/07 03:58:09;;;;;;;0.63;0.63;;;7.80;79.80;;;;;;5111537;28;20052;-38
2021/01/07 04:00:35;;;;;;;0.77;0.77;;;7.80;79.80;;;;;;5113551;28;20040;-38
2021/01/07 04:03:01;;;;;;;1.00;0.90;;;7.80;79.80;;;;;;5113212;28;20416;-38
2021/01/07 04:05:26;;;;;;;0.70;0.70;;;7.80;79.80;;;;;;5113749;28;20403;-38
2021/01/07 04:07:52;;;;;;;0.60;0.60;;;7.80;79.80;;;;;;5113220;28;20050;-38
2021/01/07 04:10:18;;;;;;;0.80;0.80;;;7.80;79.80;;;;;;5113728;28;20048;-38
2021/01/07 04:12:43;;;;;;;0.60;0.60;;;7.80;79.80;;;;;;5112941;28;20506;-38
2021/01/07 04:15:09;;;;;;;0.70;0.68;;;7.80;79.80;;;;;;5110447;28;20067;-37
2021/01/07 04:17:35;;;;;;;0.73;0.60;;;7.80;79.80;;;;;;5113210;28;20134;-38
2021/01/07 04:20:01;;;;;;;0.70;0.70;;;7.80;79.80;;;;;;5113838;28;20495;-39
2021/01/07 04:22:26;;;;;;;0.95;0.80;;;7.80;80.50;;;;;;5112756;28;20048;-38
2021/01/07 04:24:53;;;;;;;0.57;0.57;;;7.80;79.80;;;;;;5113025;28;20437;-38
2021/01/07 04:27:18;;;;;;;0.70;0.70;;;7.80;79.80;;;;;;5112977;28;20062;-38
2021/01/07 04:29:44;;;;;;;0.65;0.65;;;7.80;79.80;;;;;;5113087;28;20051;-38
2021/01/07 04:32:10;;;;;;;0.60;0.60;;;7.80;79.80;;;;;;5110572;28;20392;-38
2021/01/07 04:34:36;;;;;;;0.90;0.90;;;7.80;79.80;;;;;;5112822;28;20433;-39
2021/01/07 04:37:02;;;;;;;0.98;0.80;;;7.80;79.80;;;;;;5112827;28;20046;-38
2021/01/07 04:39:27;;;;;;;1.00;0.90;;;7.80;79.80;;;;;;5113051;28;20418;-38
2021/01/07 04:41:53;;;;;;;0.57;0.52;;;7.80;79.80;;;;;;5112790;28;20054;-38
2021/01/07 04:44:20;;;;;;;1.15;0.90;;;7.80;79.80;;;;;;5112645;28;20052;-38
2021/01/07 04:46:46;;;;;;;0.80;0.75;;;7.80;79.80;;;;;;5113128;28;20116;-38
2021/01/07 04:49:13;;;;;;;0.63;0.63;;;7.80;79.80;;;;;;5112912;28;20407;-39
2021/01/07 04:51:39;;;;;;;0.88;0.77;;;7.80;79.80;;;;;;5113096;28;20050;-37
2021/01/07 04:54:05;;;;;;;0.73;0.60;;;7.80;79.80;;;;;;5112498;28;20047;-38
2021/01/07 04:56:31;;;;;;;0.80;0.80;;;7.80;79.80;;;;;;5112554;28;20070;-39
2021/01/07 04:58:57;;;;;;;0.80;0.80;;;7.80;79.80;;;;;;5112790;28;20072;-38
2021/01/07 05:01:23;;;;;;;0.60;0.60;;;7.80;79.80;;;;;;5112668;28;20389;-38
2021/01/07 05:03:51;;;;;;;0.75;0.75;;;7.80;79.80;;;;;;5112517;28;20088;-38
2021/01/07 05:06:23;;;;;;;0.90;0.88;;;7.80;79.80;;;;;;5112948;28;20136;-38
2021/01/07 05:09:01;;;;;;;1.17;0.80;;;7.80;79.80;;;;;;5112597;28;20480;-38
2021/01/07 05:11:28;;;;;;;1.25;0.98;;;7.80;79.80;;;;;;5112760;28;20048;-39
2021/01/07 05:13:57;;;;;;;0.93;0.80;;;7.80;79.80;;;;;;5116195;28;20047;-39
2021/01/07 05:16:23;;;;;;;0.88;0.80;;;7.80;79.80;;;;;;5117097;28;20035;-38
2021/01/07 05:18:48;;;;;;;0.80;0.70;;;7.80;79.80;;;;;;5116669;28;20066;-38
2021/01/07 05:21:14;;;;;;;1.02;0.70;;;7.80;79.80;;;;;;5117078;28;20085;-39
2021/01/07 05:23:40;;;;;;;0.93;0.88;;;7.80;79.80;;;;;;5116699;28;20051;-38
2021/01/07 05:26:08;;;;;;;0.80;0.80;;;7.80;79.80;;;;;;5116569;28;20421;-38
2021/01/07 05:28:34;;;;;;;0.90;0.70;;;7.80;79.80;;;;;;5116555;28;20042;-38
2021/01/07 05:31:02;;;;;;;0.63;0.63;;;7.80;79.80;;;;;;5116793;28;20047;-38
2021/01/07 05:33:28;;;;;;;0.95;0.80;;;7.80;79.80;;;;;;5114485;28;20074;-38
2021/01/07 05:35:55;;;;;;;0.68;0.68;;;7.80;79.80;;;;;;5116207;28;20492;-38
2021/01/07 05:38:20;;;;;;;0.60;0.60;;;7.80;79.80;;;;;;5116053;28;20092;-38
2021/01/07 05:40:49;;;;;;;0.88;0.80;;;7.80;79.80;;;;;;5115876;28;20047;-38
2021/01/07 05:43:15;;;;;;;0.90;0.90;;;7.80;79.80;;;;;;5116185;28;20111;-38
2021/01/07 05:45:44;;;;;;;1.27;0.80;;;7.80;79.80;;;;;;5116277;28;20071;-38
2021/01/07 05:48:10;;;;;;;0.70;0.70;;;7.80;80.50;;;;;;5116163;27;20058;-38
2021/01/07 05:50:39;;;;;;;1.33;1.23;;;7.80;79.80;;;;;;5116487;28;20126;-38
2021/01/07 05:53:05;;;;;;;0.70;0.70;;;7.80;79.80;;;;;;5116408;28;20052;-38
2021/01/07 05:55:31;;;;;;;0.80;0.80;;;7.80;79.80;;;;;;5113540;28;20039;-37
2021/01/07 05:58:01;;;;;;;0.73;0.63;;;7.80;79.80;;;;;;5116181;28;20197;-37
2021/01/07 06:00:33;;;;;;;0.70;0.70;;;7.80;79.90;;;;;;5115969;28;20040;-38
2021/01/07 06:03:02;;;;;;;0.75;0.70;;;7.80;79.80;;;;;;5116056;28;20079;-38
2021/01/07 06:05:29;;;;;;;0.82;0.82;;;7.80;79.80;;;;;;5115871;28;20107;-38
2021/01/07 06:07:56;;;;;;;1.17;0.77;;;7.80;79.80;;;;;;5115829;28;20435;-38
2021/01/07 06:10:23;;;;;;;0.70;0.68;;;7.80;79.80;;;;;;5115400;28;20052;-38
2021/01/07 06:12:49;;;;;;;0.80;0.80;;;7.80;79.80;;;;;;5116052;28;20048;-38
2021/01/07 06:15:17;;;;;;;0.88;0.80;;;7.80;79.80;;;;;;5115808;28;20047;-37
2021/01/07 06:17:44;;;;;;;0.70;0.70;;;7.80;79.80;;;;;;5115803;28;20096;-38
2021/01/07 06:20:14;;;;;;;0.65;0.55;;;7.80;79.80;;;;;;5113133;28;20048;-37
2021/01/07 06:22:44;;;;;;;1.10;0.70;;;7.80;79.80;;;;;;5115643;28;20039;-38
2021/01/07 06:25:13;;;;;;;0.95;0.85;;;7.80;79.80;;;;;;5115357;28;20453;-39
2021/01/07 06:27:44;;;;;;;0.80;0.80;;;7.80;79.80;;;;;;5115641;28;20043;-38
2021/01/07 06:30:10;;;;;;;0.57;0.57;;;7.80;79.80;;;;;;5115303;28;20434;-38
2021/01/07 06:32:36;;;;;;;0.77;0.77;;;7.80;79.80;;;;;;5115695;28;20051;-37
2021/01/07 06:35:09;;;;;;;0.60;0.60;;;7.80;79.80;;;;;;5115217;28;20071;-39
2021/01/07 06:37:47;;;;;;;0.70;0.70;;;7.80;79.80;;;;;;5104682;28;20086;-37
2021/01/07 06:40:14;;;;;;;0.90;0.80;;;7.80;79.80;;;;;;5110802;28;20051;-36
2021/01/07 06:42:48;;;;;;;0.80;0.80;;;7.80;79.80;;;;;;5109823;28;20527;-37
2021/01/07 06:45:14;;;;;;;0.70;0.70;;;7.80;79.80;;;;;;5107415;28;20052;-37
2021/01/07 06:47:42;;;;;;;0.80;0.80;;;7.80;79.80;;;;;;5109912;28;20489;-37
2021/01/07 06:50:13;;;;;;;0.63;0.52;;;7.80;79.80;;;;;;5110115;28;20040;-37
2021/01/07 06:52:43;;;;;;;0.95;0.85;;;7.80;79.80;;;;;;5109653;28;20044;-37
2021/01/07 06:55:12;;;;;;;0.82;0.82;;;7.80;79.80;;;;;;5110195;28;20518;-37
2021/01/07 06:57:48;;;;;;;1.02;0.77;;;7.80;79.80;;;;;;5109185;28;20043;-37
2021/01/07 07:00:18;;;;;;;0.80;0.80;;;7.80;79.80;;;;;;5109626;28;20117;-36
2021/01/07 07:03:04;;;;;;;0.85;0.80;;;7.70;79.70;;;;;;5109630;28;20035;-36
2021/01/07 07:05:31;;;;;;;;;;;7.80;79.80;;;;;;5109214;28;20395;-37
2021/01/07 07:08:10;;;;;;;0.73;0.70;;;7.80;79.80;;;;;;5109921;28;19935;-37
2021/01/07 07:10:36;;;;;;;1.48;0.77;;;7.80;79.80;;;;;;5109507;28;20060;-37
2021/01/07 07:13:21;;;;;;;1.48;0.88;;;7.80;79.80;;;;;;5109057;28;20055;-37
2021/01/07 07:15:49;;;;;;;0.88;0.70;;;7.80;79.70;;;;;;5109787;28;20092;-37
2021/01/07 07:18:34;;;;;;;0.80;0.80;;;7.80;79.80;;;;;;5108603;28;20051;-36
2021/01/07 07:21:21;;;;;;;0.73;0.73;;;7.80;79.80;;;;;;5109314;28;20048;-36
2021/01/07 07:23:47;;;;;;;0.75;0.75;;;7.80;79.80;;;;;;5109237;28;20043;-36
2021/01/07 07:26:31;;;;;;;1.08;0.98;;;7.80;79.80;;;;;;5109296;28;20078;-36
2021/01/07 07:29:02;;;;;;;0.65;0.60;;;7.80;79.80;;;;;;5111089;28;20051;-37
2021/01/07 07:31:45;;;;;;;1.00;0.90;;;7.80;79.70;;;;;;5112182;28;20104;-37
2021/01/07 07:34:12;;;;;;;1.00;0.75;;;7.80;79.80;;;;;;5109186;28;20502;-37
2021/01/07 07:36:39;;;;;;;1.20;1.10;;;7.80;79.80;;;;;;5112093;28;20074;-37
2021/01/07 07:39:06;;;;;;;1.20;0.93;;;7.80;79.80;;;;;;5112742;27;20058;-37
2021/01/07 07:41:44;;;;;;;0.90;0.90;;;7.80;79.80;;;;;;5108193;28;20399;-38
2021/01/07 07:44:10;;;;;;;0.90;0.60;;;7.80;79.80;;;;;;5113433;28;20043;-38
2021/01/07 07:46:37;;;;;;;1.02;0.90;;;7.80;79.80;;;;;;5113619;27;20044;-38
2021/01/07 07:49:05;;;;;;;1.55;0.93;;;7.80;79.80;;;;;;5113557;28;20395;-39
2021/01/07 07:51:30;;;;;;;1.00;0.90;;;7.80;79.80;;;;;;5110209;28;20050;-38
2021/01/07 07:54:04;;;;;;;0.70;0.70;;;7.80;79.80;;;;;;5113408;28;20043;-38
2021/01/07 07:56:29;;;;;;;1.15;0.98;;;7.80;79.80;;;;;;5112889;28;20061;-39
2021/01/07 07:59:05;;;;;;;0.60;0.60;;;7.80;79.80;;;;;;5112612;28;20039;-38
2021/01/07 08:01:42;;;;;;;0.80;0.80;;;7.80;79.80;;;;;;5109259;28;20042;-38
2021/01/07 08:04:13;;;;;;;0.70;0.70;;;7.80;79.80;;;;;;5112217;28;20052;-38
2021/01/07 08:06:39;;;;;;;0.77;0.77;;;7.80;79.80;;;;;;5113388;28;20050;-39
2021/01/07 08:09:10;;;;;;;1.00;0.90;;;7.80;79.80;;;;;;5113289;28;20047;-39
2021/01/07 08:11:43;;;;;;;2.25;1.10;;;7.80;79.80;;;;;;5113568;28;20047;-38
2021/01/07 08:14:11;;;;;;;1.08;0.98;;;7.80;79.80;;;;;;5113002;28;20096;-38
2021/01/07 08:16:38;;;;;;;0.80;0.80;;;7.80;79.80;;;;;;5113670;28;20396;-39
2021/01/07 08:19:23;;;;;;;0.80;0.80;;;7.80;79.80;;;;;;5113185;28;20044;-40
2021/01/07 08:21:50;;;;;;;1.52;1.10;;;7.80;79.80;;;;;;5113349;28;20044;-39
2021/01/07 08:24:18;;;;;;;1.33;1.20;;;7.80;80.40;;;;;;5112961;28;20047;-39
2021/01/07 08:26:54;;;;;;;0.70;0.70;;;7.80;79.80;;;;;;5113552;28;20480;-38
2021/01/07 08:29:21;;;;;;;0.70;0.70;;;7.80;79.80;;;;;;5110132;28;20043;-39
2021/01/07 08:31:49;;;;;;;0.95;0.80;;;7.80;79.80;;;;;;5113468;28;20043;-39
2021/01/07 08:34:19;;;;;;;0.80;0.80;;;7.80;79.80;;;;;;5113173;28;20051;-38
2021/01/07 08:36:45;;;;;;;1.25;0.85;;;7.80;79.80;;;;;;5113102;28;20097;-39
2021/01/07 08:39:14;;;;;;;1.42;0.98;;;7.80;79.80;;;;;;5113373;28;20058;-38
2021/01/07 08:41:42;;;;;;;0.70;0.70;;;7.80;79.80;;;;;;5110669;28;20075;-39
2021/01/07 08:44:08;;;;;;;0.95;0.80;;;7.80;79.70;;;;;;5112689;28;20047;-39
2021/01/07 08:46:38;;;;;;;0.80;0.80;;;7.80;79.70;;;;;;5113291;28;20055;-39
2021/01/07 08:49:06;;;;;;;1.27;0.90;;;7.70;79.70;;;;;;5110896;28;20475;-39
2021/01/07 08:51:42;;;;;;;1.10;1.00;;;7.80;79.80;;;;;;5113042;28;20115;-39
2021/01/07 08:54:19;;;;;;;1.52;0.90;;;7.80;79.80;;;;;;5111346;28;20097;-39
2021/01/07 08:56:48;;;;;;;1.42;1.33;;;7.80;79.70;;;;;;5111151;28;20047;-39
2021/01/07 08:59:33;;;;;;;1.25;1.02;;;7.80;79.80;;;;;;5112864;28;20050;-37
2021/01/07 09:02:01;;;;;;;0.90;0.80;;;7.80;79.70;;;;;;5112967;28;20147;-39
2021/01/07 09:04:27;;;;;;;0.73;0.73;;;7.80;79.70;;;;;;5106391;28;20058;-38
2021/01/07 09:07:04;;;;;;;1.75;1.00;;;7.80;79.70;;;;;;5112963;28;20052;-37
2021/01/07 09:09:49;;;;;;;1.33;1.02;;;7.80;79.70;;;;;;5111131;28;20067;-38
2021/01/07 09:12:17;;;;;;;1.23;1.13;;;7.80;79.70;;;;;;5111471;28;20052;-38
2021/01/07 09:15:12;;;;;;;1.10;1.00;;;7.80;79.80;;;;;;5112068;28;20047;-38
2021/01/07 09:17:43;;;;;;;1.10;0.95;;;7.70;79.70;;;;;;5111666;28;20051;-37
2021/01/07 09:20:17;;;;;;;0.80;0.80;;;7.80;79.80;;;;;;5110717;28;20176;-38
2021/01/07 09:22:43;;;;;;;0.90;0.90;;;7.80;79.70;;;;;;5109819;28;20036;-38
2021/01/07 09:25:19;;;;;;;1.48;1.38;;;7.80;80.40;;;;;;5112116;28;20132;-38
2021/01/07 09:27:46;;;;;;;2.58;1.10;;;7.80;79.80;;;;;;5110256;28;20044;-37
2021/01/07 09:30:13;;;;;;;1.00;0.98;;;7.70;79.70;;;;;;5111676;28;20071;-38
2021/01/07 09:32:39;;;;;;;1.33;1.00;;;7.80;79.70;;;;;;5112010;28;20052;-36
2021/01/07 09:35:05;;;;;;;1.10;0.90;;;7.70;79.70;;;;;;5112018;28;20081;-38
2021/01/07 09:37:34;;;;;;;0.98;0.90;;;7.70;79.70;;;;;;5112141;28;20075;-38
2021/01/07 09:40:02;;;;;;;1.13;0.95;;;7.80;79.80;;;;;;5111861;28;20544;-37
2021/01/07 09:42:29;;;;;;;0.95;0.90;;;7.80;79.70;;;;;;5111953;28;20131;-36
2021/01/07 09:44:55;;;;;;;1.02;0.93;;;7.80;79.70;;;;;;5112228;28;20075;-38
2021/01/07 09:47:23;;;;;;;1.08;0.98;;;7.80;79.70;;;;;;5109035;28;20074;-38
2021/01/07 09:49:49;;;;;;;1.17;1.08;;;7.80;79.70;;;;;;5111930;28;20036;-38
2021/01/07 09:52:14;;;;;;;0.98;0.90;;;7.80;79.70;;;;;;5112101;28;20043;-39
2021/01/07 09:54:40;;;;;;;0.98;0.98;;;7.80;79.70;;;;;;5112656;28;20097;-39
2021/01/07 09:57:06;;;;;;;2.05;1.17;;;7.80;79.70;;;;;;5112761;28;20047;-39
2021/01/07 09:59:32;;;;;;;1.15;0.90;;;7.80;79.70;;;;;;5113493;28;20043;-39
2021/01/07 10:02:00;;;;;;;1.23;1.02;;;7.80;79.70;;;;;;5115862;28;20040;-39
2021/01/07 10:04:27;;;;;;;0.95;0.90;;;7.80;79.70;;;;;;5107844;28;20055;-38
2021/01/07 10:06:53;;;;;;;1.17;0.88;;;7.80;79.70;;;;;;5115719;28;20047;-38
2021/01/07 10:09:19;;;;;;;1.08;0.90;;;7.80;79.70;;;;;;5115296;28;20051;-38
2021/01/07 10:11:56;;;;;;;0.85;0.80;;;7.80;79.80;;;;;;5115471;28;20111;-36
2021/01/07 10:14:23;;;;;;;0.85;0.85;;;7.80;79.70;;;;;;5112711;28;20043;-36
2021/01/07 10:17:02;;;;;;;1.55;1.10;;;7.80;79.70;;;;;;5114035;28;20040;-36
2021/01/07 10:19:30;;;;;;;1.20;1.00;;;7.80;79.70;;;;;;5105500;28;20069;-37
2021/01/07 10:22:00;;;;;;;1.48;1.00;;;7.80;79.70;;;;;;5111106;28;20043;-37
2021/01/07 10:24:27;;;;;;;1.02;0.88;;;7.80;79.70;;;;;;5110480;28;20070;-37
2021/01/07 10:27:00;;;;;;;1.00;0.90;;;7.80;79.70;;;;;;5110246;28;20040;-37
2021/01/07 10:29:28;;;;;;;0.90;0.85;;;7.80;79.70;;;;;;5107913;28;20127;-36
2021/01/07 10:31:57;;;;;;;1.20;1.10;;;7.80;79.70;;;;;;5110178;28;20043;-37
2021/01/07 10:34:24;;;;;;;1.23;0.95;;;7.80;79.70;;;;;;5109832;28;20092;-36
2021/01/07 10:36:51;;;;;;;0.95;0.90;;;7.80;79.70;;;;;;5109285;28;20120;-37
2021/01/07 10:39:21;;;;;;;1.50;1.10;;;7.80;79.70;;;;;;5109648;28;20039;-37
2021/01/07 10:41:49;;;;;;;1.48;0.90;;;7.80;79.70;;;;;;5109694;28;20050;-36
2021/01/07 10:44:18;;;;;;;1.10;0.90;;;7.80;79.70;;;;;;5109899;28;20149;-36
2021/01/07 10:46:45;;;;;;;1.45;0.88;;;7.80;79.80;;;;;;5109572;28;20143;-37
2021/01/07 10:49:18;;;;;;;0.85;0.80;;;7.80;79.70;;;;;;5103824;28;20051;-36
2021/01/07 10:52:07;;;;;;;1.50;1.40;;;7.80;79.70;;;;;;5097930;28;20403;-37
2021/01/07 10:54:51;;;;;;;0.90;0.70;;;7.80;79.70;;;;;;5066203;28;20052;-37
2021/01/07 10:57:53;;;;;;;1.42;0.90;;;7.80;79.70;;;;;;5066291;28;20135;-37
2021/01/07 11:00:28;;;;;;;1.30;1.00;;;7.80;79.70;;;;;;5064491;28;20044;-37
2021/01/07 11:03:22;;;;;;;1.10;0.97;;;7.80;79.70;;;;;;5063195;28;20130;-38
2021/01/07 11:05:54;;;;;;;1.52;1.42;;;7.80;79.70;;;;;;5065628;28;20785;-38
2021/01/07 11:08:29;;;;;;;1.20;1.00;;;7.80;79.70;;;;;;5064181;28;20056;-38
2021/01/07 11:10:59;;;;;;;1.10;1.00;;;7.80;79.70;;;;;;5061497;28;20056;-37
2021/01/07 11:13:34;;;;;;;1.15;0.90;;;7.80;79.70;;;;;;5066217;28;20431;-37
2021/01/07 11:16:00;;;;;;;1.42;1.17;;;7.80;79.70;;;;;;5066356;28;20090;-38
2021/01/07 11:18:29;;;;;;;1.05;0.93;;;7.80;79.70;;;;;;5066033;28;20087;-38
2021/01/07 11:21:03;;;;;;;1.02;0.95;;;7.80;79.70;;;;;;5066120;28;20052;-38
2021/01/07 11:23:31;;;;;;;1.42;0.90;;;7.80;79.80;;;;;;5066569;28;20516;-39
2021/01/07 11:25:57;;;;;;;2.10;0.98;;;7.80;79.70;;;;;;5066041;28;20136;-37
2021/01/07 11:28:23;;;;;;;1.05;0.98;;;7.80;79.80;;;;;;5066461;28;20131;-36
2021/01/07 11:30:49;;;;;;;1.40;1.20;;;7.80;79.80;;;;;;5072878;28;20056;-38
2021/01/07 11:33:16;;;;;;;1.02;0.93;;;7.80;79.80;;;;;;5109033;28;20053;-37
2021/01/07 11:35:44;;;;;;;1.25;0.98;;;7.80;80.50;;;;;;5109190;28;20138;-38
2021/01/07 11:38:24;;;;;;;1.15;1.00;;;7.80;79.80;;;;;;5108824;28;20559;-36
2021/01/07 11:40:57;;;;;;;1.02;0.95;;;7.80;79.80;;;;;;5109076;28;20040;-36
2021/01/07 11:44:07;;;;;;;1.05;0.90;;;7.80;79.80;;;;;;5108939;28;20120;-37
2021/01/07 11:46:37;;;;;;;1.77;1.08;;;7.80;79.80;;;;;;5109583;27;20051;-37
2021/01/07 11:49:04;;;;;;;1.48;1.20;;;7.80;79.90;;;;;;5109424;28;20052;-38
2021/01/07 11:51:30;;;;;;;1.00;0.90;;;7.80;79.80;;;;;;5103785;28;20539;-37
2021/01/07 11:53:58;;;;;;;0.90;0.80;;;7.80;79.80;;;;;;5088695;28;20132;-38
2021/01/07 11:56:24;;;;;;;1.38;0.80;;;7.80;79.80;;;;;;5089409;28;20048;-37
2021/01/07 11:58:52;;;;;;;1.00;0.90;;;7.80;79.80;;;;;;5088785;28;20060;-38
2021/01/07 12:01:18;;;;;;;1.35;1.00;;;7.80;79.80;;;;;;5089103;28;20089;-37
2021/01/07 12:03:44;;;;;;;1.35;1.15;;;7.80;79.80;;;;;;5088967;28;20052;-37
2021/01/07 12:06:14;;;;;;;1.30;1.00;;;7.80;79.80;;;;;;5088581;28;20523;-38
2021/01/07 12:09:12;;;;;;;1.10;1.00;;;7.80;79.80;;;;;;5088813;28;20048;-37
2021/01/07 12:11:47;;;;;;;0.73;0.73;;;7.80;79.80;;;;;;5088932;28;20063;-36
2021/01/07 12:14:15;;;;;;;0.70;0.70;;;7.80;79.80;;;;;;5089144;28;20058;-37
2021/01/07 12:16:46;;;;;;;0.82;0.82;;;7.80;79.80;;;;;;5088877;28;20247;-37
2021/01/07 12:19:13;;;;;;;0.80;0.80;;;7.80;79.80;;;;;;5088366;28;20150;-37
2021/01/07 12:21:40;;;;;;;1.00;0.90;;;7.80;79.80;;;;;;5088826;28;20048;-37
2021/01/07 12:24:08;;;;;;;0.75;0.75;;;7.80;79.90;;;;;;5087921;28;20048;-39
2021/01/07 12:26:34;;;;;;;0.68;0.68;;;7.80;79.80;;;;;;5089569;28;20040;-37
2021/01/07 12:29:00;;;;;;;1.15;0.90;;;7.80;79.80;;;;;;5091874;28;20051;-41
2021/01/07 12:31:27;;;;;;;0.82;0.82;;;7.80;79.80;;;;;;5092159;28;20511;-38
2021/01/07 12:34:32;;;;;;;0.73;0.73;;;7.90;79.80;;;;;;5091537;28;20071;-38
2021/01/07 12:37:19;;;;;;;0.80;0.73;;;7.90;79.90;;;;;;5091590;28;20051;-37
2021/01/07 12:40:06;;;;;;;0.68;0.65;;;7.90;79.80;;;;;;5092123;28;20511;-38
2021/01/07 12:42:44;;;;;;;0.77;0.77;;;7.90;79.80;;;;;;5104538;28;20119;-39
2021/01/07 12:45:16;;;;;;;1.83;0.80;;;7.90;79.80;;;;;;5113601;28;20122;-39
2021/01/07 12:47:42;;;;;;;1.40;0.70;;;7.90;79.80;;;;;;5113460;28;20552;-40
2021/01/07 12:50:12;;;;;;;0.80;0.80;;;7.80;79.80;;;;;;5113458;28;20134;-41
2021/01/07 12:52:38;;;;;;;0.75;0.73;;;7.90;79.80;;;;;;5113508;28;20047;-39
2021/01/07 12:55:06;;;;;;;0.80;0.80;;;7.90;79.80;;;;;;5113557;28;20479;-40
2021/01/07 12:57:40;;;;;;;0.65;0.65;;;7.90;79.80;;;;;;5113283;28;20114;-40
2021/01/07 13:00:15;;;;;;;0.70;0.70;;;7.90;79.80;;;;;;5113397;28;20479;-40
2021/01/07 13:03:18;;;;;;;1.25;0.80;;;7.90;79.80;;;;;;5113537;28;20038;-40
2021/01/07 13:05:51;;;;;;;0.75;0.60;;;7.90;79.80;;;;;;5113490;28;20047;-40
2021/01/07 13:08:17;;;;;;;0.70;0.70;;;7.90;79.80;;;;;;5113381;28;20491;-41